Time;durP1;ratioP1;P1;durP2;ratioP2;P2;SDS_P1;SDS_P2;PMS_P1;PMS_P2;Temp;Humidity;BMP_temperature;BMP_pressure;BME280_temperature;BME280_humidity;BME280_pressure;Samples;Min_cycle;Max_cycle;Signal;HPM_P1;HPM_P2
2023/08/25 00:00:22;;;;;;;13.20;10.63;;;;;;;-143.84;91.53;45064.31;5109721;28;20431;-59
2023/08/25 00:02:49;;;;;;;16.20;11.20;;;;;;;-143.84;91.54;45041.44;5109537;28;20435;-59
2023/08/25 00:05:16;;;;;;;11.93;10.27;;;;;;;-143.84;92.02;45066.22;5109357;28;20949;-59
2023/08/25 00:07:43;;;;;;;19.60;11.27;;;;;;;-143.84;92.69;45066.22;5109419;28;20941;-59
2023/08/25 00:10:11;;;;;;;11.70;10.50;;;;;;;-143.84;92.95;45056.69;5109410;28;20427;-59
2023/08/25 00:12:39;;;;;;;14.27;10.63;;;;;;;-143.84;93.20;45068.13;5109173;28;20499;-59
2023/08/25 00:15:07;;;;;;;17.33;11.47;;;;;;;-143.84;93.18;45064.31;5108434;28;20561;-58
2023/08/25 00:17:35;;;;;;;19.07;11.90;;;;;;;-143.84;92.85;45071.91;5109487;28;20860;-59
2023/08/25 00:20:03;;;;;;;12.93;11.67;;;;;;;-143.84;92.71;45066.22;5109248;28;20434;-59
2023/08/25 00:22:30;;;;;;;13.53;10.83;;;;;;;-143.84;92.32;45064.31;5109328;28;20992;-59
2023/08/25 00:24:57;;;;;;;11.93;10.70;;;;;;;-143.84;92.05;45070.00;5109089;28;20479;-59
2023/08/25 00:27:24;;;;;;;27.50;13.30;;;;;;;-143.84;91.47;45050.97;5109010;28;20492;-59
2023/08/25 00:29:54;;;;;;;15.70;12.87;;;;;;;-143.84;91.29;45049.06;5109515;28;20989;-58
2023/08/25 00:32:21;;;;;;;13.67;12.37;;;;;;;-143.84;91.43;45054.78;5109340;28;20453;-59
2023/08/25 00:34:48;;;;;;;16.43;13.20;;;;;;;-143.84;91.60;45085.25;5109098;28;20442;-59
2023/08/25 00:37:15;;;;;;;13.10;11.90;;;;;;;-143.84;91.70;45081.44;5109380;28;20434;-61
2023/08/25 00:39:42;;;;;;;15.77;12.50;;;;;;;-143.84;91.74;45060.50;5108838;28;20491;-59
2023/08/25 00:42:09;;;;;;;16.10;12.73;;;;;;;-143.84;91.80;45064.31;5108823;28;20450;-59
2023/08/25 00:44:36;;;;;;;15.23;13.73;;;;;;;-143.84;91.85;45030.03;5108967;28;20994;-58
2023/08/25 00:47:06;;;;;;;12.90;11.90;;;;;;;-143.84;91.89;45073.81;5109075;28;20551;-59
2023/08/25 00:49:34;;;;;;;15.50;13.03;;;;;;;-143.84;92.56;45058.59;5109058;28;20454;-59
2023/08/25 00:52:03;;;;;;;15.63;12.60;;;;;;;-143.84;93.16;45071.91;5109055;28;20952;-59
2023/08/25 00:54:34;;;;;;;15.40;13.80;;;;;;;-143.84;93.37;45071.91;5108798;28;20435;-59
2023/08/25 00:57:02;;;;;;;23.00;14.00;;;;;;;-143.84;94.14;45071.91;5108952;28;20485;-58
2023/08/25 00:59:30;;;;;;;17.13;13.50;;;;;;;-143.84;94.80;45064.31;5108795;28;20442;-58
2023/08/25 01:01:57;;;;;;;13.90;12.60;;;;;;;-143.84;95.08;45073.81;5108704;28;20434;-59
2023/08/25 01:04:26;;;;;;;15.87;13.20;;;;;;;-143.84;95.10;45073.81;5108611;28;20503;-59
2023/08/25 01:06:54;;;;;;;13.53;12.23;;;;;;;-143.84;95.47;45083.34;5108753;28;20499;-59
2023/08/25 01:09:21;;;;;;;13.67;12.17;;;;;;;-143.84;95.12;45052.88;5108831;28;20526;-59
2023/08/25 01:12:00;;;;;;;22.23;13.67;;;;;;;-143.84;94.89;45068.13;5108718;28;20431;-59
2023/08/25 01:14:34;;;;;;;14.10;12.70;;;;;;;-143.84;94.32;45081.44;5108785;28;20957;-59
2023/08/25 01:17:06;;;;;;;13.80;12.50;;;;;;;-143.84;92.76;45081.44;5108564;28;20475;-58
2023/08/25 01:19:57;;;;;;;12.50;11.30;;;;;;;-143.84;91.91;45047.16;5108668;28;20989;-59
2023/08/25 01:22:30;;;;;;;12.70;10.30;;;;;;;-143.84;90.92;45075.72;5108904;28;20504;-59
2023/08/25 01:25:16;;;;;;;12.60;9.40;;;;;;;-143.84;90.30;45083.34;5108649;28;20511;-59
2023/08/25 01:27:45;;;;;;;15.17;9.87;;;;;;;-143.84;90.07;45087.16;5110677;28;20524;-59
2023/08/25 01:30:13;;;;;;;13.30;10.40;;;;;;;-143.84;90.24;45064.31;5112369;28;20435;-59
2023/08/25 01:32:40;;;;;;;16.63;9.80;;;;;;;-143.84;90.31;45083.34;5112222;28;20528;-59
2023/08/25 01:35:09;;;;;;;12.70;10.43;;;;;;;-143.84;90.03;45083.34;5112371;28;20439;-58
2023/08/25 01:37:42;;;;;;;11.90;10.30;;;;;;;-143.84;90.21;45085.25;5112363;28;20442;-61
2023/08/25 01:40:21;;;;;;;11.83;10.20;;;;;;;-143.84;90.31;45089.06;5112682;28;20851;-59
2023/08/25 01:42:52;;;;;;;9.90;8.37;;;;;;;-143.84;90.19;45075.72;5112364;28;20500;-59
2023/08/25 01:45:20;;;;;;;16.43;9.03;;;;;;;-143.84;90.16;45089.06;5112549;28;20525;-58
2023/08/25 01:47:49;;;;;;;11.00;8.80;;;;;;;-143.84;89.95;45079.53;5112169;28;20507;-59
2023/08/25 01:50:17;;;;;;;10.37;7.40;;;;;;;-143.84;89.57;45073.81;5112157;27;20808;-59
2023/08/25 01:52:44;;;;;;;13.47;8.10;;;;;;;-143.84;89.24;45092.88;5111794;28;20495;-59
2023/08/25 01:55:12;;;;;;;14.80;8.00;;;;;;;-143.84;89.16;45052.88;5112188;28;20849;-59
2023/08/25 01:57:39;;;;;;;9.60;7.70;;;;;;;-143.84;89.13;45066.22;5112327;28;20515;-58
2023/08/25 02:00:09;;;;;;;13.47;8.00;;;;;;;-143.84;89.05;45071.91;5112016;28;20427;-59
2023/08/25 02:02:36;;;;;;;9.57;8.57;;;;;;;-143.84;88.96;45085.25;5111901;28;20435;-58
2023/08/25 02:05:04;;;;;;;9.00;8.10;;;;;;;-143.84;88.84;45070.00;5111941;27;20442;-58
2023/08/25 02:07:31;;;;;;;11.67;8.00;;;;;;;-143.84;88.76;45083.34;5111586;28;20793;-59
2023/08/25 02:09:58;;;;;;;12.10;8.20;;;;;;;-143.84;88.66;45045.25;5111644;28;20436;-58
2023/08/25 02:12:25;;;;;;;9.23;7.70;;;;;;;-143.84;88.56;45054.78;5111774;28;20495;-61
2023/08/25 02:14:52;;;;;;;11.53;6.97;;;;;;;-143.84;88.44;45071.91;5111663;28;21044;-59
2023/08/25 02:17:21;;;;;;;8.73;7.83;;;;;;;-143.84;87.99;45079.53;5111619;28;20478;-59
2023/08/25 02:19:48;;;;;;;18.57;7.90;;;;;;;-143.84;87.99;45085.25;5111445;28;20443;-59
2023/08/25 02:22:15;;;;;;;9.27;8.20;;;;;;;-143.84;87.98;45068.13;5111659;28;20909;-59
2023/08/25 02:24:42;;;;;;;9.67;8.10;;;;;;;-143.84;87.74;45058.59;5111255;27;21179;-59
2023/08/25 02:27:09;;;;;;;9.47;8.57;;;;;;;-143.84;87.79;45089.06;5111468;28;20446;-59
2023/08/25 02:29:36;;;;;;;13.87;8.30;;;;;;;-143.84;88.36;45047.16;5111728;28;20465;-59
2023/08/25 02:32:03;;;;;;;16.43;7.80;;;;;;;-143.84;89.18;45073.81;5111273;28;20435;-59
2023/08/25 02:34:32;;;;;;;9.63;8.47;;;;;;;-143.84;89.87;45085.25;5111200;28;20435;-59
2023/08/25 02:36:59;;;;;;;8.73;8.00;;;;;;;-143.84;90.30;45085.25;5110310;28;20475;-59
2023/08/25 02:39:26;;;;;;;10.27;8.23;;;;;;;-143.84;90.50;45075.72;5111106;28;20932;-59
2023/08/25 02:41:53;;;;;;;19.10;7.60;;;;;;;-143.84;90.82;45075.72;5111112;28;20492;-59
2023/08/25 02:44:20;;;;;;;10.77;8.60;;;;;;;-143.84;91.09;45087.16;5111018;28;20496;-59
2023/08/25 02:46:48;;;;;;;9.87;8.80;;;;;;;-143.84;91.48;45062.41;5111035;27;20829;-59
2023/08/25 02:49:15;;;;;;;9.47;8.57;;;;;;;-143.84;91.57;45058.59;5111297;28;20438;-59
2023/08/25 02:51:43;;;;;;;9.07;8.17;;;;;;;-143.84;91.77;45081.44;5110713;28;20928;-60
2023/08/25 02:54:10;;;;;;;14.97;8.90;;;;;;;-143.84;91.57;45075.72;5110843;28;20439;-59
2023/08/25 02:56:37;;;;;;;20.27;9.73;;;;;;;-143.84;91.66;45066.22;5110860;28;20572;-59
2023/08/25 02:59:04;;;;;;;8.93;8.13;;;;;;;-143.84;91.41;45079.53;5110665;28;20439;-59
2023/08/25 03:01:33;;;;;;;14.63;9.10;;;;;;;-143.84;90.36;45092.88;5110872;28;20434;-59
2023/08/25 03:04:00;;;;;;;7.70;7.10;;;;;;;-143.84;89.82;45083.34;5110808;28;20431;-60
2023/08/25 03:06:27;;;;;;;11.77;8.03;;;;;;;-143.84;89.48;45090.97;5110648;28;20500;-59
2023/08/25 03:08:55;;;;;;;11.00;7.90;;;;;;;-143.84;89.01;45062.41;5110677;28;20434;-60
2023/08/25 03:11:22;;;;;;;9.43;8.53;;;;;;;-143.84;88.23;45060.50;5110633;28;20495;-60
2023/08/25 03:13:50;;;;;;;15.77;8.73;;;;;;;-143.84;87.88;45071.91;5110932;27;20439;-59
2023/08/25 03:16:17;;;;;;;11.53;8.57;;;;;;;-143.84;87.44;45079.53;5110475;28;20474;-59
2023/08/25 03:18:44;;;;;;;13.70;7.97;;;;;;;-143.84;87.10;45056.69;5110415;28;20435;-59
2023/08/25 03:21:11;;;;;;;9.83;8.33;;;;;;;-143.84;86.55;45066.22;5110670;27;20842;-59
2023/08/25 03:23:38;;;;;;;14.47;8.40;;;;;;;-143.84;86.30;45075.72;5110307;28;20492;-59
2023/08/25 03:26:07;;;;;;;11.40;8.07;;;;;;;-143.84;86.10;45070.00;5110467;28;20944;-63
2023/08/25 03:28:34;;;;;;;10.10;8.00;;;;;;;-143.84;85.42;45077.63;5110375;28;20439;-59
2023/08/25 03:31:01;;;;;;;14.20;8.10;;;;;;;-143.84;85.03;45073.81;5110401;28;20503;-59
2023/08/25 03:33:28;;;;;;;13.17;6.77;;;;;;;-143.84;84.89;45106.19;5110079;28;20431;-59
2023/08/25 03:35:55;;;;;;;10.07;8.40;;;;;;;-143.84;84.54;45028.13;5110313;28;20431;-59
2023/08/25 03:38:22;;;;;;;15.70;9.90;;;;;;;-143.84;84.85;45071.91;5110189;28;20504;-59
2023/08/25 03:40:57;;;;;;;10.17;8.10;;;;;;;-143.84;84.80;45071.91;5109988;28;20492;-59
2023/08/25 03:43:26;;;;;;;15.80;10.00;;;;;;;-143.84;84.89;45075.72;5110189;28;20505;-59
2023/08/25 03:45:53;;;;;;;11.40;9.13;;;;;;;-143.84;84.44;45054.78;5110002;28;20846;-59
2023/08/25 03:48:21;;;;;;;10.40;9.40;;;;;;;-143.84;83.90;45075.72;5109777;27;20535;-59
2023/08/25 03:50:48;;;;;;;9.40;8.50;;;;;;;-143.84;83.89;45092.88;5109789;28;20443;-59
2023/08/25 03:53:16;;;;;;;10.83;8.73;;;;;;;-143.84;83.50;45081.44;5109711;28;20464;-60
2023/08/25 03:55:43;;;;;;;10.43;9.53;;;;;;;-143.84;83.27;45089.06;5110044;28;20439;-59
2023/08/25 03:58:11;;;;;;;20.90;9.90;;;;;;;-143.84;83.36;45033.84;5109610;28;20430;-59
2023/08/25 04:00:39;;;;;;;10.67;8.67;;;;;;;-143.84;82.95;45089.06;5109662;28;20439;-59
2023/08/25 04:03:07;;;;;;;9.93;8.93;;;;;;;-143.84;83.03;45068.13;5109380;28;20492;-59
2023/08/25 04:05:34;;;;;;;14.60;8.33;;;;;;;-143.84;82.70;45052.88;5109588;28;20526;-59
2023/08/25 04:08:02;;;;;;;14.90;9.00;;;;;;;-143.84;82.67;45071.91;5109354;28;20431;-59
2023/08/25 04:10:29;;;;;;;14.57;8.00;;;;;;;-143.84;82.76;45077.63;5109758;28;20519;-59
2023/08/25 04:12:56;;;;;;;13.43;7.63;;;;;;;-143.84;82.99;45056.69;5109396;28;20431;-59
2023/08/25 04:15:23;;;;;;;12.23;7.13;;;;;;;-143.84;83.46;45070.00;5109392;28;20435;-59
2023/08/25 04:17:51;;;;;;;8.60;7.90;;;;;;;-143.84;83.85;45144.28;5108866;28;20535;-59
2023/08/25 04:20:19;;;;;;;14.83;8.00;;;;;;;-143.84;83.80;45049.06;5109051;28;20496;-58
2023/08/25 04:22:46;;;;;;;14.90;8.60;;;;;;;-143.84;83.84;45087.16;5109330;28;20439;-59
2023/08/25 04:25:13;;;;;;;10.07;8.40;;;;;;;-143.84;83.97;45064.31;5108661;28;20564;-59
2023/08/25 04:27:41;;;;;;;17.23;8.37;;;;;;;-143.84;83.44;45049.06;5109067;28;20445;-59
2023/08/25 04:30:10;;;;;;;8.27;6.73;;;;;;;-143.84;81.42;45087.16;5108614;28;20451;-59
2023/08/25 04:32:37;;;;;;;6.63;6.00;;;;;;;-143.84;80.17;45073.81;5108813;28;20443;-59
2023/08/25 04:35:07;;;;;;;8.93;7.10;;;;;;;-143.84;79.65;45052.88;5109401;28;20431;-59
2023/08/25 04:37:35;;;;;;;10.70;6.00;;;;;;;-143.84;78.61;45056.69;5109169;28;20570;-59
2023/08/25 04:40:02;;;;;;;11.00;7.33;;;;;;;-143.84;78.96;45041.44;5109088;28;20512;-59
2023/08/25 04:42:29;;;;;;;8.50;6.70;;;;;;;-143.84;76.90;45077.63;5109170;28;20920;-59
2023/08/25 04:44:56;;;;;;;9.87;7.13;;;;;;;-143.84;75.92;45037.66;5109308;28;20431;-59
2023/08/25 04:47:23;;;;;;;8.33;6.47;;;;;;;-143.84;73.67;45050.97;5108893;28;20555;-59
2023/08/25 04:49:50;;;;;;;12.70;6.53;;;;;;;-143.84;71.98;45026.22;5109559;28;20438;-59
2023/08/25 04:52:20;;;;;;;6.47;5.73;;;;;;;-143.84;69.75;45014.78;5109100;28;20461;-59
2023/08/25 04:54:47;;;;;;;6.50;5.93;;;;;;;-143.84;68.59;45041.44;5109085;28;21035;-59
2023/08/25 04:57:14;;;;;;;13.93;7.00;;;;;;;-143.84;66.95;45030.03;5108892;28;20508;-59
2023/08/25 04:59:42;;;;;;;8.80;5.50;;;;;;;-143.84;62.21;45012.88;5108976;28;20431;-60
2023/08/25 05:02:09;;;;;;;17.30;5.90;;;;;;;-143.84;62.20;45026.22;5112967;28;20845;-59
2023/08/25 05:04:36;;;;;;;6.67;5.97;;;;;;;-143.84;57.67;45014.78;5113579;28;20478;-60
2023/08/25 05:07:03;;;;;;;9.67;5.03;;;;;;;-143.84;54.82;44978.63;5113188;28;20872;-59
2023/08/25 05:09:32;;;;;;;8.50;5.77;;;;;;;-143.84;52.84;44988.13;5113092;28;20491;-58
2023/08/25 05:11:59;;;;;;;11.30;5.23;;;;;;;-143.84;51.92;44990.03;5113028;28;20820;-59
2023/08/25 05:14:26;;;;;;;14.40;6.23;;;;;;;-143.84;51.34;44999.56;5112851;28;20542;-59
2023/08/25 05:16:53;;;;;;;9.33;5.30;;;;;;;-143.84;51.02;44976.72;5112965;28;20902;-59
2023/08/25 05:19:21;;;;;;;14.03;5.40;;;;;;;-143.84;51.52;44967.19;5113053;28;20435;-59
2023/08/25 05:21:48;;;;;;;9.03;5.10;;;;;;;-143.84;51.36;44995.75;5113159;28;20491;-59
2023/08/25 05:24:19;;;;;;;8.87;6.53;;;;;;;-143.84;51.80;44969.09;5112491;28;20482;-59
2023/08/25 05:26:51;;;;;;;12.43;6.10;;;;;;;-143.84;52.52;44944.34;5112715;28;20439;-59
2023/08/25 05:29:18;;;;;;;5.83;4.57;;;;;;;-143.84;55.97;44978.63;5112665;28;20446;-59
2023/08/25 05:31:45;;;;;;;11.00;5.00;;;;;;;-143.84;52.08;44965.28;5112697;27;20545;-59
2023/08/25 05:34:13;;;;;;;6.43;5.50;;;;;;;-143.84;53.00;44953.88;5113187;28;20434;-59
2023/08/25 05:36:40;;;;;;;9.63;5.57;;;;;;;-143.84;50.52;44948.16;5112779;28;20553;-59
2023/08/25 05:39:07;;;;;;;9.37;5.53;;;;;;;-143.84;55.74;44974.81;5112792;28;20439;-59
2023/08/25 05:41:34;;;;;;;7.07;5.40;;;;;;;-143.84;54.56;44934.81;5112615;27;20431;-59
2023/08/25 05:44:03;;;;;;;7.30;4.77;;;;;;;-143.84;55.76;44972.91;5112193;28;20496;-59
2023/08/25 05:46:31;;;;;;;7.70;5.17;;;;;;;-143.84;55.43;44972.91;5112075;28;20442;-59
2023/08/25 05:48:58;;;;;;;8.60;4.97;;;;;;;-143.84;55.54;44942.44;5112154;28;20457;-59
2023/08/25 05:51:26;;;;;;;6.47;4.93;;;;;;;-143.84;53.31;44974.81;5112224;28;20427;-59
2023/08/25 05:53:53;;;;;;;7.67;4.77;;;;;;;-143.84;52.14;44942.44;5111990;28;20997;-59
2023/08/25 05:56:20;;;;;;;7.03;4.43;;;;;;;-143.84;50.79;44950.06;5111867;27;20443;-59
2023/08/25 05:58:47;;;;;;;5.43;4.57;;;;;;;-143.84;49.06;44950.06;5111713;28;20486;-59
2023/08/25 06:01:16;;;;;;;12.03;4.67;;;;;;;-143.84;47.26;44969.09;5111908;28;20587;-58
2023/08/25 06:03:44;;;;;;;10.17;4.77;;;;;;;-143.84;47.68;44921.50;5111865;28;20435;-60
2023/08/25 06:06:11;;;;;;;6.83;4.83;;;;;;;-143.84;48.09;44950.06;5112085;28;20497;-59
2023/08/25 06:08:39;;;;;;;7.10;4.47;;;;;;;-143.84;49.82;44944.34;5111826;28;20465;-59
2023/08/25 06:11:07;;;;;;;11.37;5.53;;;;;;;-143.84;48.35;44950.06;5111836;28;20430;-59
2023/08/25 06:13:34;;;;;;;5.77;5.03;;;;;;;-143.84;48.87;44950.06;5110591;28;20438;-59
2023/08/25 06:16:02;;;;;;;5.47;5.03;;;;;;;-143.84;47.11;44948.16;5111638;28;20427;-59
2023/08/25 06:18:30;;;;;;;10.23;4.90;;;;;;;-143.84;47.77;44936.72;5111511;28;20539;-59
2023/08/25 06:20:58;;;;;;;9.83;5.30;;;;;;;-143.84;48.58;44940.53;5111339;28;20439;-59
2023/08/25 06:23:25;;;;;;;9.93;5.60;;;;;;;-143.84;48.41;44950.06;5111458;28;20443;-60
2023/08/25 06:25:52;;;;;;;10.60;6.10;;;;;;;-143.84;48.75;44946.25;5111410;28;20990;-59
2023/08/25 06:28:19;;;;;;;7.77;4.97;;;;;;;-143.84;49.07;44925.31;5111487;28;20493;-59
2023/08/25 06:30:50;;;;;;;6.23;4.67;;;;;;;-143.84;49.00;44915.78;5111451;28;20439;-59
2023/08/25 06:33:17;;;;;;;13.50;6.03;;;;;;;-143.84;49.54;44936.72;5111483;28;20439;-59
2023/08/25 06:35:45;;;;;;;11.37;5.73;;;;;;;-143.84;49.72;44950.06;5111231;28;20439;-59
2023/08/25 06:38:13;;;;;;;13.00;6.13;;;;;;;-143.84;51.18;44934.81;5111253;27;20479;-59
2023/08/25 06:40:40;;;;;;;6.20;4.93;;;;;;;-143.84;53.21;44959.56;5111156;28;20948;-59
2023/08/25 06:43:07;;;;;;;13.57;5.93;;;;;;;-143.84;51.84;44972.91;5111268;28;20804;-59
2023/08/25 06:45:34;;;;;;;12.10;5.40;;;;;;;-143.84;53.71;44950.06;5111066;28;20495;-59
2023/08/25 06:48:01;;;;;;;8.60;5.30;;;;;;;-143.84;53.02;44938.63;5111087;28;20439;-59
2023/08/25 06:50:28;;;;;;;6.57;5.77;;;;;;;-143.84;53.47;44925.31;5111243;28;20431;-59
2023/08/25 06:52:57;;;;;;;11.13;5.80;;;;;;;-143.84;54.74;44942.44;5111129;28;20427;-59
2023/08/25 06:55:24;;;;;;;5.90;5.30;;;;;;;-143.84;53.05;44923.41;5111114;28;20454;-59
2023/08/25 06:57:51;;;;;;;13.13;6.10;;;;;;;-143.84;54.06;44923.41;5110964;28;21242;-59
2023/08/25 07:00:19;;;;;;;8.20;5.07;;;;;;;-143.84;55.00;44906.25;5111221;28;20444;-58
2023/08/25 07:02:46;;;;;;;15.00;4.60;;;;;;;-143.84;53.94;44950.06;5110994;28;20427;-59
2023/08/25 07:05:14;;;;;;;7.23;5.40;;;;;;;-143.84;53.22;45001.47;5111071;28;20932;-59
2023/08/25 07:07:42;;;;;;;7.70;5.50;;;;;;;-143.84;52.71;44917.69;5110994;28;20454;-59
2023/08/25 07:10:13;;;;;;;9.77;5.40;;;;;;;-143.84;53.88;44932.91;5110743;28;20445;-59
2023/08/25 07:12:41;;;;;;;8.60;5.27;;;;;;;-143.84;55.31;44925.31;5110642;28;20483;-59
2023/08/25 07:15:09;;;;;;;12.67;4.70;;;;;;;-143.84;53.63;44942.44;5110749;28;20443;-60
2023/08/25 07:17:36;;;;;;;12.27;5.27;;;;;;;-143.84;51.19;44944.34;5110289;28;20544;-59
2023/08/25 07:20:04;;;;;;;10.70;7.10;;;;;;;-143.84;50.17;44921.50;5110866;28;20876;-59
2023/08/25 07:22:32;;;;;;;10.00;5.10;;;;;;;-143.84;52.95;44889.13;5110508;28;20473;-59
2023/08/25 07:24:59;;;;;;;6.07;4.67;;;;;;;-143.84;54.31;44919.59;5109850;28;20478;-59
2023/08/25 07:27:27;;;;;;;8.50;4.87;;;;;;;-143.84;52.82;44919.59;5110221;28;20447;-59
2023/08/25 07:29:54;;;;;;;10.73;4.63;;;;;;;-143.84;54.15;44917.69;5110387;27;20443;-59
2023/08/25 07:32:22;;;;;;;7.63;5.03;;;;;;;-143.84;53.35;44931.00;5110249;27;20442;-59
2023/08/25 07:34:49;;;;;;;9.43;4.30;;;;;;;-143.84;55.47;44953.88;5110118;28;20496;-58
2023/08/25 07:37:16;;;;;;;7.23;4.67;;;;;;;-143.84;55.31;44910.06;5110485;27;20454;-59
2023/08/25 07:39:44;;;;;;;7.90;4.47;;;;;;;-143.84;55.99;44910.06;5110093;28;20933;-59
2023/08/25 07:42:11;;;;;;;19.90;5.60;;;;;;;-143.84;53.41;44910.06;5110118;28;20833;-59
2023/08/25 07:44:39;;;;;;;24.03;5.27;;;;;;;-143.84;54.72;44898.66;5110152;28;20435;-60
2023/08/25 07:47:07;;;;;;;9.30;5.47;;;;;;;-143.84;52.61;44927.19;5110193;28;20454;-60
2023/08/25 07:49:34;;;;;;;5.50;5.00;;;;;;;-143.84;53.95;44936.72;5110067;28;20505;-59
2023/08/25 07:52:02;;;;;;;13.50;5.60;;;;;;;-143.84;54.99;44932.91;5110074;28;20431;-59
2023/08/25 07:54:29;;;;;;;10.70;5.80;;;;;;;-143.84;54.96;44915.78;5109624;28;20484;-59
2023/08/25 07:56:56;;;;;;;11.70;5.40;;;;;;;-143.84;55.80;44950.06;5109875;28;20438;-58
2023/08/25 07:59:23;;;;;;;7.60;5.53;;;;;;;-143.84;53.83;44925.31;5110117;28;20482;-59
2023/08/25 08:01:52;;;;;;;6.83;6.10;;;;;;;-143.84;54.38;44929.09;5109727;28;20451;-59
2023/08/25 08:04:19;;;;;;;7.63;5.20;;;;;;;-143.84;58.00;44971.00;5110033;28;20443;-59
2023/08/25 08:06:46;;;;;;;7.53;5.30;;;;;;;-143.84;55.35;44927.19;5109825;28;20820;-59
2023/08/25 08:09:13;;;;;;;10.40;4.40;;;;;;;-143.84;54.83;44910.06;5109508;28;20435;-59
2023/08/25 08:11:40;;;;;;;9.60;5.40;;;;;;;-143.84;56.17;44929.09;5109591;28;20804;-59
2023/08/25 08:14:08;;;;;;;14.53;5.70;;;;;;;-143.84;57.47;44934.81;5109366;28;20446;-59
2023/08/25 08:16:35;;;;;;;8.27;5.13;;;;;;;-143.84;56.08;44946.25;5109417;28;20804;-59
2023/08/25 08:19:05;;;;;;;8.50;5.70;;;;;;;-143.84;59.99;44913.88;5109594;28;20483;-59
2023/08/25 08:21:33;;;;;;;9.40;4.37;;;;;;;-143.84;56.01;44963.38;5109484;28;20805;-58
2023/08/25 08:24:00;;;;;;;10.30;4.33;;;;;;;-143.84;57.51;44921.50;5109038;28;20988;-58
2023/08/25 08:26:27;;;;;;;7.80;3.93;;;;;;;-143.84;56.54;44980.53;5109339;28;20567;-59
2023/08/25 08:28:54;;;;;;;7.73;4.33;;;;;;;-143.84;55.35;44963.38;5109404;28;20989;-58
2023/08/25 08:31:21;;;;;;;14.63;5.47;;;;;;;-143.84;61.23;44934.81;5109331;28;20431;-59
2023/08/25 08:33:49;;;;;;;8.07;5.60;;;;;;;-143.84;58.39;44953.88;5109055;28;20446;-58
2023/08/25 08:36:19;;;;;;;5.90;4.90;;;;;;;-143.84;56.26;44953.88;5108489;28;20431;-59
2023/08/25 08:38:46;;;;;;;5.20;4.50;;;;;;;-143.84;56.76;44969.09;5109014;28;20532;-59
2023/08/25 08:41:16;;;;;;;9.27;4.80;;;;;;;-143.84;59.42;44948.16;5109023;28;20951;-59
2023/08/25 08:43:46;;;;;;;6.90;4.70;;;;;;;-143.84;57.67;44950.06;5109094;28;20488;-59
2023/08/25 08:46:15;;;;;;;13.80;5.00;;;;;;;-143.84;57.65;44955.75;5108835;28;20970;-58
2023/08/25 08:48:44;;;;;;;8.10;5.13;;;;;;;-143.84;56.73;44929.09;5109231;28;20452;-58
2023/08/25 08:51:15;;;;;;;7.83;4.67;;;;;;;-143.84;54.81;44927.19;5109005;28;20509;-59
2023/08/25 08:53:43;;;;;;;11.03;4.20;;;;;;;-143.84;56.17;44929.09;5109207;28;21158;-59
2023/08/25 08:56:11;;;;;;;5.03;4.60;;;;;;;-143.84;57.17;44919.59;5109066;28;20473;-59
2023/08/25 08:58:38;;;;;;;8.10;5.70;;;;;;;-143.84;56.39;44944.34;5108180;28;20489;-59
2023/08/25 09:01:08;;;;;;;8.30;4.30;;;;;;;-143.84;59.22;44957.66;5108681;28;20439;-59
2023/08/25 09:03:35;;;;;;;10.00;4.40;;;;;;;-143.84;56.32;44929.09;5108445;28;20488;-59
2023/08/25 09:06:04;;;;;;;4.33;4.03;;;;;;;-143.84;60.12;44967.19;5108860;28;20507;-58
2023/08/25 09:08:32;;;;;;;9.03;4.23;;;;;;;-143.84;58.83;44953.88;5108329;28;20971;-59
2023/08/25 09:11:03;;;;;;;7.10;4.27;;;;;;;-143.84;59.98;44919.59;5108807;28;20431;-58
2023/08/25 09:13:33;;;;;;;6.40;4.07;;;;;;;-143.84;60.41;44950.06;5108893;28;20443;-58
2023/08/25 09:16:00;;;;;;;9.00;4.20;;;;;;;-143.84;59.16;44957.66;5108839;28;20538;-58
2023/08/25 09:18:34;;;;;;;6.90;3.80;;;;;;;-143.84;56.85;44957.66;5108649;28;20471;-59
2023/08/25 09:21:03;;;;;;;5.60;3.60;;;;;;;-143.84;56.54;44934.81;5109162;28;20439;-59
2023/08/25 09:23:30;;;;;;;7.90;3.40;;;;;;;-143.84;54.55;44942.44;5108483;28;20455;-59
2023/08/25 09:26:03;;;;;;;4.20;3.90;;;;;;;-143.84;53.81;44927.19;5108853;28;20452;-59
2023/08/25 09:28:37;;;;;;;6.20;3.40;;;;;;;-143.84;56.50;44917.69;5108772;28;20504;-59
2023/08/25 09:31:05;;;;;;;7.50;4.40;;;;;;;-143.84;54.28;44950.06;5108446;28;20496;-59
2023/08/25 09:33:32;;;;;;;7.60;4.73;;;;;;;-143.84;55.09;44963.38;5108327;28;20527;-58
2023/08/25 09:36:05;;;;;;;11.50;4.13;;;;;;;-143.84;56.73;44940.53;5108445;28;20457;-59
2023/08/25 09:38:34;;;;;;;6.03;3.87;;;;;;;-143.84;48.72;44957.66;5108419;28;20482;-58
2023/08/25 09:41:01;;;;;;;9.90;4.20;;;;;;;-143.84;53.48;44969.09;5108207;28;20474;-59
2023/08/25 09:43:33;;;;;;;4.07;3.77;;;;;;;-143.84;56.63;44936.72;5108366;28;20500;-59
2023/08/25 09:46:00;;;;;;;6.10;4.53;;;;;;;-143.84;53.93;44915.78;5108796;28;20439;-59
2023/08/25 09:48:33;;;;;;;6.33;3.33;;;;;;;-143.84;52.36;44950.06;5112171;28;20944;-59
2023/08/25 09:51:00;;;;;;;7.30;3.80;;;;;;;-143.84;53.09;44963.38;5111999;28;20529;-59
2023/08/25 09:53:33;;;;;;;5.80;3.57;;;;;;;-143.84;53.68;44961.47;5112096;28;20507;-59
2023/08/25 09:56:04;;;;;;;9.30;4.07;;;;;;;-143.84;49.68;44915.78;5112057;28;20435;-59
2023/08/25 09:58:35;;;;;;;5.37;3.57;;;;;;;-143.84;55.46;44951.97;5111866;28;20615;-59
2023/08/25 10:01:02;;;;;;;10.53;4.03;;;;;;;-143.84;51.65;44961.47;5111922;28;20439;-58
2023/08/25 10:03:30;;;;;;;4.33;4.03;;;;;;;-143.84;50.17;44969.09;5111963;27;20793;-58
2023/08/25 10:05:59;;;;;;;6.30;3.33;;;;;;;-143.84;50.52;44965.28;5111747;28;20960;-58
2023/08/25 10:08:27;;;;;;;6.43;4.67;;;;;;;-143.84;49.42;44957.66;5111699;28;20476;-58
2023/08/25 10:10:56;;;;;;;4.97;3.60;;;;;;;-143.84;49.50;44959.56;5111970;28;20958;-58
2023/08/25 10:13:28;;;;;;;7.77;4.07;;;;;;;-143.84;46.63;44944.34;5111821;28;20431;-59
2023/08/25 10:15:58;;;;;;;4.10;3.40;;;;;;;-143.84;44.76;44951.97;5111846;27;20922;-58
2023/08/25 10:18:27;;;;;;;8.23;4.17;;;;;;;-143.84;50.17;44953.88;5112245;28;20528;-59
2023/08/25 10:20:55;;;;;;;6.60;4.20;;;;;;;-143.84;56.71;44951.97;5111417;28;20466;-59
2023/08/25 10:23:23;;;;;;;6.70;3.90;;;;;;;-143.84;54.54;44942.44;5111355;28;20993;-59
2023/08/25 10:25:51;;;;;;;4.47;4.03;;;;;;;-143.84;51.40;44929.09;5091390;28;20458;-59
2023/08/25 10:28:18;;;;;;;4.00;3.70;;;;;;;-143.84;42.63;44929.09;5091192;28;20504;-59
2023/08/25 10:30:45;;;;;;;6.27;3.53;;;;;;;-143.84;55.36;44951.97;5090910;28;20440;-58
2023/08/25 10:33:15;;;;;;;6.37;3.90;;;;;;;-143.84;52.38;44910.06;5090910;28;20439;-58
2023/08/25 10:35:44;;;;;;;5.17;3.30;;;;;;;-143.84;56.91;44959.56;5091247;28;20448;-58
2023/08/25 10:38:36;;;;;;;5.53;3.30;;;;;;;-143.84;56.85;44946.25;5090997;28;20475;-59
2023/08/25 10:41:18;;;;;;;9.40;3.93;;;;;;;-143.84;53.90;44915.78;5082348;28;20456;-59
2023/08/25 10:43:52;;;;;;;3.90;3.60;;;;;;;-143.84;53.61;44900.53;5090633;28;20542;-58
2023/08/25 10:46:20;;;;;;;8.17;3.57;;;;;;;-143.84;52.06;44927.19;5090791;28;20775;-58
2023/08/25 10:48:53;;;;;;;8.10;3.40;;;;;;;-143.84;56.61;44944.34;5090677;28;20515;-59
2023/08/25 10:51:22;;;;;;;4.13;3.83;;;;;;;-143.84;57.78;44925.31;5090807;28;20443;-58
2023/08/25 10:53:54;;;;;;;4.23;3.20;;;;;;;-143.84;50.23;44929.09;5090623;28;20845;-59
2023/08/25 10:56:22;;;;;;;7.53;3.70;;;;;;;-143.84;54.70;44957.66;5090526;28;20762;-59
2023/08/25 10:58:58;;;;;;;7.57;3.10;;;;;;;-143.84;55.23;44972.91;5090025;28;20505;-59
2023/08/25 11:01:27;;;;;;;3.63;3.33;;;;;;;-143.84;54.54;44974.81;5090379;28;20469;-58
2023/08/25 11:04:07;;;;;;;9.63;4.00;;;;;;;-143.84;55.93;44976.72;5090534;28;20448;-59
2023/08/25 11:06:39;;;;;;;3.93;3.40;;;;;;;-143.84;55.50;44948.16;5090575;28;20543;-59
2023/08/25 11:09:06;;;;;;;10.40;3.07;;;;;;;-143.84;55.97;44953.88;5090408;28;20786;-58
2023/08/25 11:11:36;;;;;;;10.20;3.40;;;;;;;-143.84;51.72;44925.31;5090317;28;20432;-59
2023/08/25 11:14:03;;;;;;;5.93;4.23;;;;;;;-143.84;55.88;44969.09;5090350;28;20502;-59
2023/08/25 11:16:30;;;;;;;4.17;3.50;;;;;;;-143.84;59.41;44948.16;5090483;28;20584;-59